createdAt,value
2019-05-01T00:01:06.259Z,8.00
2019-05-01T00:03:52.130Z,8.00
2019-05-01T00:06:25.508Z,8.00
2019-05-01T00:08:55.000Z,8.00
2019-05-01T00:11:25.376Z,7.90
2019-05-01T00:13:55.061Z,7.80
2019-05-01T00:16:24.460Z,7.80
2019-05-01T00:18:54.116Z,7.80
2019-05-01T00:21:23.621Z,7.80
2019-05-01T00:23:53.073Z,7.80
2019-05-01T00:26:22.851Z,7.80
2019-05-01T00:28:52.518Z,7.80
2019-05-01T00:31:21.918Z,7.70
2019-05-01T00:33:51.342Z,7.70
2019-05-01T00:36:20.726Z,7.70
2019-05-01T00:38:50.108Z,7.70
2019-05-01T00:41:19.834Z,7.70
2019-05-01T00:43:49.209Z,7.60
2019-05-01T00:46:19.412Z,7.50
2019-05-01T00:48:48.809Z,7.40
2019-05-01T00:51:18.466Z,7.20
2019-05-01T00:53:48.463Z,7.20
2019-05-01T00:56:29.736Z,7.20
2019-05-01T00:59:15.485Z,7.10
2019-05-01T01:02:02.265Z,7.20
2019-05-01T01:04:31.865Z,7.20
2019-05-01T01:07:01.234Z,7.20
2019-05-01T01:09:30.619Z,7.30
2019-05-01T01:11:59.986Z,7.20
2019-05-01T01:14:29.381Z,7.20
2019-05-01T01:16:58.790Z,7.20
2019-05-01T01:19:28.455Z,7.20
2019-05-01T01:21:58.030Z,7.20
2019-05-01T01:24:27.631Z,7.20
2019-05-01T01:26:57.210Z,7.20
2019-05-01T01:29:27.022Z,7.20
2019-05-01T01:31:56.400Z,7.20
2019-05-01T01:34:25.824Z,7.20
2019-05-01T01:36:55.192Z,7.10
2019-05-01T01:39:24.959Z,7.10
2019-05-01T01:41:54.712Z,7.10
2019-05-01T01:44:34.444Z,7.00
2019-05-01T01:47:04.190Z,7.00
2019-05-01T01:49:33.552Z,7.10
2019-05-01T01:52:02.918Z,7.00
2019-05-01T01:54:32.805Z,7.00
2019-05-01T01:57:02.453Z,6.90
2019-05-01T01:59:32.150Z,6.80
2019-05-01T02:02:23.782Z,6.80
2019-05-01T02:05:04.698Z,6.70
2019-05-01T02:07:34.593Z,6.70
2019-05-01T02:10:04.965Z,6.70
2019-05-01T02:12:34.328Z,6.70
2019-05-01T02:15:03.765Z,6.60
2019-05-01T02:17:33.158Z,6.70
2019-05-01T02:20:02.562Z,6.60
2019-05-01T02:22:31.945Z,6.70
2019-05-01T02:25:01.619Z,6.60
2019-05-01T02:27:38.355Z,6.60
2019-05-01T02:30:09.450Z,6.60
2019-05-01T02:32:39.979Z,6.60
2019-05-01T02:35:09.769Z,6.50
2019-05-01T02:37:39.543Z,6.50
2019-05-01T02:40:42.931Z,6.50
2019-05-01T02:43:15.492Z,6.60
2019-05-01T02:45:47.823Z,6.50
2019-05-01T02:48:20.944Z,6.50
2019-05-01T02:50:52.322Z,6.40
2019-05-01T02:53:24.630Z,6.40
2019-05-01T02:56:13.449Z,6.40
2019-05-01T02:58:45.089Z,6.40
2019-05-01T03:01:14.885Z,6.30
2019-05-01T03:03:44.356Z,6.30
2019-05-01T03:06:14.200Z,6.40
2019-05-01T03:08:44.256Z,6.30
2019-05-01T03:11:13.848Z,6.20
2019-05-01T03:13:45.587Z,6.20
2019-05-01T03:16:16.130Z,6.20
2019-05-01T03:18:49.857Z,6.20
2019-05-01T03:21:24.565Z,6.10
2019-05-01T03:24:09.727Z,6.10
2019-05-01T03:26:39.132Z,6.10
2019-05-01T03:29:09.153Z,6.10
2019-05-01T03:31:39.107Z,6.10
2019-05-01T03:34:08.926Z,6.10
2019-05-01T03:36:38.717Z,6.00
2019-05-01T03:39:08.199Z,6.10
2019-05-01T03:41:37.746Z,6.10
2019-05-01T03:44:07.441Z,6.10
2019-05-01T03:46:37.304Z,6.10
2019-05-01T03:49:06.875Z,6.00
2019-05-01T03:51:36.471Z,6.00
2019-05-01T03:54:06.138Z,5.90
2019-05-01T03:56:35.545Z,5.90
2019-05-01T03:59:05.888Z,6.00
2019-05-01T04:01:45.660Z,6.00
2019-05-01T04:04:17.733Z,5.90
2019-05-01T04:06:47.458Z,5.90
2019-05-01T04:09:17.096Z,5.90
2019-05-01T04:11:46.595Z,5.90
2019-05-01T04:14:16.059Z,5.80
2019-05-01T04:16:47.945Z,5.80
2019-05-01T04:19:17.546Z,5.80
2019-05-01T04:21:55.464Z,5.80
2019-05-01T04:24:24.825Z,5.80
2019-05-01T04:26:54.552Z,5.90
2019-05-01T04:29:31.775Z,6.10
2019-05-01T04:32:22.946Z,6.20
2019-05-01T04:35:23.740Z,6.20
2019-05-01T04:37:58.250Z,6.30
2019-05-01T04:40:27.918Z,6.30
2019-05-01T04:42:57.410Z,6.50
2019-05-01T04:45:28.094Z,6.60
2019-05-01T04:47:57.474Z,6.60
2019-05-01T04:50:26.847Z,6.80
2019-05-01T04:52:56.335Z,7.00
2019-05-01T04:55:25.814Z,7.30
2019-05-01T04:57:55.732Z,7.70
2019-05-01T05:00:25.301Z,7.90
2019-05-01T05:03:05.577Z,8.30
2019-05-01T05:05:35.292Z,8.20
2019-05-01T05:08:04.774Z,8.40
2019-05-01T05:10:34.512Z,8.80
2019-05-01T05:13:23.433Z,8.60
2019-05-01T05:16:12.167Z,8.60
2019-05-01T05:18:41.667Z,8.70
2019-05-01T05:21:11.513Z,9.00
2019-05-01T05:23:41.990Z,9.10
2019-05-01T05:26:12.355Z,8.90
2019-05-01T05:28:43.462Z,9.10
2019-05-01T05:31:13.930Z,9.30
2019-05-01T05:33:46.030Z,9.50
2019-05-01T05:36:16.879Z,9.40
2019-05-01T05:39:03.980Z,9.60
2019-05-01T05:41:35.299Z,9.50
2019-05-01T05:44:04.985Z,9.80
2019-05-01T05:46:34.466Z,10.00
2019-05-01T05:49:03.875Z,9.90
2019-05-01T05:52:00.879Z,9.90
2019-05-01T05:55:09.065Z,10.00
2019-05-01T05:57:58.300Z,10.10
2019-05-01T06:00:42.570Z,10.40
2019-05-01T06:03:34.927Z,10.70
2019-05-01T06:06:13.642Z,10.90
2019-05-01T06:08:45.038Z,11.00
2019-05-01T06:11:43.331Z,11.00
2019-05-01T06:14:34.074Z,10.90
2019-05-01T06:17:11.538Z,11.20
2019-05-01T06:20:00.106Z,11.10
2019-05-01T06:22:47.692Z,11.00
2019-05-01T06:25:25.219Z,11.00
2019-05-01T06:27:54.094Z,10.80
2019-05-01T06:30:23.598Z,10.70
2019-05-01T06:32:52.974Z,10.90
2019-05-01T06:35:22.552Z,11.10
2019-05-01T06:38:05.318Z,10.90
2019-05-01T06:40:43.273Z,11.00
2019-05-01T06:43:27.070Z,10.90
2019-05-01T06:46:14.926Z,11.00
2019-05-01T06:48:53.517Z,11.10
2019-05-01T06:51:39.123Z,11.20
2019-05-01T06:54:16.226Z,11.30
2019-05-01T06:56:45.159Z,11.40
2019-05-01T06:59:15.251Z,11.50
2019-05-01T07:01:45.758Z,11.60
2019-05-01T07:04:15.536Z,11.80
2019-05-01T07:06:44.952Z,11.70
2019-05-01T07:09:27.387Z,12.10
2019-05-01T07:11:47.464Z,12.30
2019-05-01T07:14:17.624Z,12.60
2019-05-01T07:16:47.225Z,12.40
2019-05-01T07:19:17.901Z,12.50
2019-05-01T07:21:47.324Z,12.70
2019-05-01T07:24:16.801Z,13.20
2019-05-01T07:26:48.033Z,13.20
2019-05-01T07:29:19.523Z,13.50
2019-05-01T07:31:50.660Z,13.70
2019-05-01T07:34:21.694Z,13.60
2019-05-01T07:36:51.816Z,13.70
2019-05-01T07:39:21.419Z,13.80
2019-05-01T07:41:50.813Z,13.80
2019-05-01T07:44:39.012Z,13.80
2019-05-01T07:47:16.271Z,13.80
2019-05-01T07:49:58.206Z,14.00
2019-05-01T07:52:29.414Z,13.40
2019-05-01T07:54:59.439Z,13.40
2019-05-01T07:57:29.149Z,13.60
2019-05-01T08:00:03.191Z,13.80
2019-05-01T08:02:30.946Z,13.90
2019-05-01T08:05:04.929Z,14.00
2019-05-01T08:07:33.589Z,14.20
2019-05-01T08:10:03.054Z,14.20
2019-05-01T08:12:32.783Z,14.30
2019-05-01T08:15:02.195Z,14.20
2019-05-01T08:17:34.279Z,14.50
2019-05-01T08:20:22.743Z,14.60
2019-05-01T08:22:52.142Z,14.70
2019-05-01T08:25:21.520Z,14.60
2019-05-01T08:27:59.382Z,14.80
2019-05-01T08:30:54.072Z,15.10
2019-05-01T08:33:44.796Z,15.10
2019-05-01T08:36:14.264Z,15.30
2019-05-01T08:38:43.663Z,15.00
2019-05-01T08:41:13.113Z,15.30
2019-05-01T08:43:42.526Z,15.60
2019-05-01T08:46:29.262Z,15.80
2019-05-01T08:49:12.490Z,15.20
2019-05-01T08:51:42.566Z,15.20
2019-05-01T08:54:12.232Z,15.20
2019-05-01T08:56:43.710Z,15.60
2019-05-01T08:59:12.721Z,15.60
2019-05-01T09:01:45.847Z,15.50
2019-05-01T09:04:13.533Z,15.70
2019-05-01T09:06:43.939Z,16.00
2019-05-01T09:09:14.287Z,16.00
2019-05-01T09:11:43.929Z,16.10
2019-05-01T09:14:13.328Z,16.10
2019-05-01T09:16:42.719Z,15.90
2019-05-01T09:19:12.133Z,15.80
2019-05-01T09:21:41.858Z,15.90
2019-05-01T09:24:11.255Z,16.40
2019-05-01T09:27:05.880Z,16.50
2019-05-01T09:29:40.307Z,16.60
2019-05-01T09:32:10.518Z,16.40
2019-05-01T09:34:40.871Z,16.60
2019-05-01T09:37:10.358Z,16.60
2019-05-01T09:39:40.127Z,16.60
2019-05-01T09:42:09.900Z,16.60
2019-05-01T09:44:39.372Z,16.40
2019-05-01T09:47:09.032Z,16.50
2019-05-01T09:49:38.704Z,16.80
2019-05-01T09:52:25.442Z,16.50
2019-05-01T09:55:03.038Z,16.50
2019-05-01T09:57:36.482Z,16.50
2019-05-01T10:00:07.669Z,16.80
2019-05-01T10:02:37.578Z,16.90
2019-05-01T10:05:08.091Z,17.30
2019-05-01T10:07:37.470Z,17.30
2019-05-01T10:10:07.156Z,17.00
2019-05-01T10:12:36.820Z,17.30
2019-05-01T10:15:06.575Z,17.60
2019-05-01T10:17:36.250Z,17.30
2019-05-01T10:20:06.444Z,17.50
2019-05-01T10:22:37.452Z,17.20
2019-05-01T10:25:08.471Z,17.20
2019-05-01T10:27:41.134Z,17.50
2019-05-01T10:30:36.248Z,17.50
2019-05-01T10:33:08.053Z,17.60
2019-05-01T10:35:47.316Z,17.70
2019-05-01T10:38:16.663Z,17.50
2019-05-01T10:40:46.074Z,17.70
2019-05-01T10:43:15.445Z,17.60
2019-05-01T10:45:44.835Z,17.60
2019-05-01T10:48:14.211Z,17.70
2019-05-01T10:50:43.659Z,17.70
2019-05-01T10:53:13.049Z,17.70
2019-05-01T10:55:42.444Z,17.50
2019-05-01T10:58:12.668Z,17.60
2019-05-01T11:00:45.028Z,17.70
2019-05-01T11:03:14.694Z,17.70
2019-05-01T11:05:55.398Z,18.10
2019-05-01T11:08:15.458Z,18.00
2019-05-01T11:10:45.455Z,17.90
2019-05-01T11:13:14.851Z,18.10
2019-05-01T11:15:44.268Z,17.90
2019-05-01T11:18:13.653Z,18.10
2019-05-01T11:20:43.043Z,18.20
2019-05-01T11:23:12.694Z,18.50
2019-05-01T11:25:44.552Z,18.60
2019-05-01T11:28:13.242Z,18.30
2019-05-01T11:30:42.644Z,18.80
2019-05-01T11:33:38.664Z,18.10
2019-05-01T11:36:21.732Z,18.00
2019-05-01T11:39:10.120Z,18.20
2019-05-01T11:41:47.750Z,18.20
2019-05-01T11:44:17.143Z,18.30
2019-05-01T11:46:46.547Z,18.20
2019-05-01T11:49:15.923Z,18.10
2019-05-01T11:51:45.889Z,18.30
2019-05-01T11:54:15.268Z,18.50
2019-05-01T11:56:44.680Z,18.50
2019-05-01T11:59:14.087Z,18.60
2019-05-01T12:01:43.489Z,18.70
2019-05-01T12:04:14.257Z,18.40
2019-05-01T12:06:43.991Z,18.30
2019-05-01T12:09:13.384Z,18.70
2019-05-01T12:11:44.678Z,18.50
2019-05-01T12:14:14.392Z,18.60
2019-05-01T12:17:01.649Z,18.80
2019-05-01T12:19:31.052Z,18.80
2019-05-01T12:22:00.408Z,19.00
2019-05-01T12:24:29.827Z,19.00
2019-05-01T12:26:59.220Z,18.90
2019-05-01T12:29:28.633Z,18.90
2019-05-01T12:31:58.179Z,19.60
2019-05-01T12:34:27.542Z,19.40
2019-05-01T12:37:16.800Z,19.10
2019-05-01T12:39:46.537Z,19.10
2019-05-01T12:42:17.023Z,19.10
2019-05-01T12:44:46.568Z,19.30
2019-05-01T12:47:21.067Z,19.40
2019-05-01T12:49:51.511Z,18.90
2019-05-01T12:52:29.373Z,19.20
2019-05-01T12:55:13.555Z,19.30
2019-05-01T12:57:42.958Z,19.60
2019-05-01T13:00:14.778Z,19.70
2019-05-01T13:02:44.192Z,19.90
2019-05-01T13:05:13.581Z,19.90
2019-05-01T13:07:43.176Z,20.10
2019-05-01T13:10:13.509Z,19.90
2019-05-01T13:12:42.914Z,20.00
2019-05-01T13:15:12.532Z,20.10
2019-05-01T13:17:42.354Z,19.90
2019-05-01T13:20:11.725Z,19.50
2019-05-01T13:22:41.429Z,19.50
2019-05-01T13:25:10.851Z,19.60
2019-05-01T13:28:00.668Z,19.80
2019-05-01T13:30:41.236Z,19.80
2019-05-01T13:33:10.634Z,19.70
2019-05-01T13:35:40.261Z,19.90
2019-05-01T13:38:10.041Z,19.60
2019-05-01T13:40:39.719Z,19.90
2019-05-01T13:43:09.107Z,20.10
2019-05-01T13:45:38.500Z,20.20
2019-05-01T13:48:08.108Z,19.70
2019-05-01T13:50:37.486Z,19.80
2019-05-01T13:53:07.543Z,19.90
2019-05-01T13:55:37.151Z,19.90
2019-05-01T13:58:07.440Z,19.90
2019-05-01T14:00:36.990Z,19.60
2019-05-01T14:03:06.665Z,19.70
2019-05-01T14:05:36.010Z,19.90
2019-05-01T14:08:05.407Z,19.80
2019-05-01T14:10:35.401Z,19.70
2019-05-01T14:13:05.069Z,19.40
2019-05-01T14:15:34.538Z,19.20
2019-05-01T14:18:04.170Z,19.60
2019-05-01T14:20:47.656Z,19.90
2019-05-01T14:23:38.747Z,20.00
2019-05-01T14:26:08.192Z,20.40
2019-05-01T14:28:37.582Z,20.30
2019-05-01T14:31:07.357Z,20.00
2019-05-01T14:33:36.758Z,20.10
2019-05-01T14:36:06.233Z,20.00
2019-05-01T14:38:35.777Z,20.10
2019-05-01T14:41:05.224Z,20.00
2019-05-01T14:43:34.891Z,20.10
2019-05-01T14:46:04.575Z,20.30
2019-05-01T14:48:34.201Z,20.30
2019-05-01T14:51:03.587Z,20.50
2019-05-01T14:53:32.997Z,20.60
2019-05-01T14:56:02.753Z,20.60
2019-05-01T14:58:32.456Z,20.40
2019-05-01T15:01:01.887Z,20.40
2019-05-01T15:03:31.290Z,20.40
2019-05-01T15:06:01.311Z,20.40
2019-05-01T15:08:30.686Z,20.30
2019-05-01T15:11:00.095Z,20.20
2019-05-01T15:13:51.712Z,20.20
2019-05-01T15:16:25.417Z,20.20
2019-05-01T15:19:03.831Z,20.40
2019-05-01T15:21:33.231Z,20.40
2019-05-01T15:24:02.870Z,20.20
2019-05-01T15:26:32.268Z,20.00
2019-05-01T15:29:01.671Z,20.30
2019-05-01T15:31:31.844Z,20.20
2019-05-01T15:34:01.840Z,20.00
2019-05-01T15:36:31.516Z,20.00
2019-05-01T15:39:01.799Z,20.10
2019-05-01T15:41:50.174Z,20.20
2019-05-01T15:44:22.627Z,20.20
2019-05-01T15:46:52.010Z,19.90
2019-05-01T15:49:21.656Z,19.80
2019-05-01T15:51:51.400Z,20.00
2019-05-01T15:54:20.980Z,20.00
2019-05-01T15:56:50.601Z,19.90
2019-05-01T15:59:20.031Z,20.00
2019-05-01T16:01:49.495Z,20.10
2019-05-01T16:04:19.230Z,19.90
2019-05-01T16:06:48.616Z,19.80
2019-05-01T16:09:18.275Z,19.80
2019-05-01T16:12:12.441Z,19.80
2019-05-01T16:14:45.070Z,20.00
2019-05-01T16:17:14.753Z,20.00
2019-05-01T16:19:44.753Z,19.90
2019-05-01T16:22:14.169Z,20.00
2019-05-01T16:24:43.537Z,20.30
2019-05-01T16:27:13.260Z,20.40
2019-05-01T16:29:42.627Z,20.40
2019-05-01T16:32:12.380Z,20.50
2019-05-01T16:34:41.787Z,20.30
2019-05-01T16:37:11.216Z,20.20
2019-05-01T16:39:56.802Z,20.20
2019-05-01T16:42:40.573Z,20.20
2019-05-01T16:45:10.764Z,20.40
2019-05-01T16:47:40.424Z,20.50
2019-05-01T16:50:10.533Z,20.50
2019-05-01T16:52:40.814Z,20.50
2019-05-01T16:55:10.684Z,20.30
2019-05-01T16:57:40.069Z,20.40
2019-05-01T17:00:10.970Z,20.50
2019-05-01T17:03:07.231Z,20.60
2019-05-01T17:05:58.730Z,20.60
2019-05-01T17:08:45.527Z,20.30
2019-05-01T17:11:15.281Z,20.40
2019-05-01T17:13:44.651Z,20.20
2019-05-01T17:16:14.277Z,20.20
2019-05-01T17:18:43.666Z,20.30
2019-05-01T17:21:13.097Z,20.30
2019-05-01T17:23:42.485Z,20.20
2019-05-01T17:26:11.944Z,20.40
2019-05-01T17:28:41.600Z,20.00
2019-05-01T17:31:11.156Z,19.60
2019-05-01T17:33:40.868Z,19.40
2019-05-01T17:36:10.267Z,19.10
2019-05-01T17:38:49.446Z,19.10
2019-05-01T17:41:11.360Z,18.80
2019-05-01T17:43:44.667Z,18.70
2019-05-01T17:46:12.144Z,18.50
2019-05-01T17:48:41.642Z,18.40
2019-05-01T17:51:11.106Z,18.30
2019-05-01T17:53:40.739Z,18.20
2019-05-01T17:56:15.346Z,18.10
2019-05-01T17:58:41.495Z,18.00
2019-05-01T18:01:33.346Z,17.90
2019-05-01T18:04:09.257Z,17.80
2019-05-01T18:06:42.021Z,17.70
2019-05-01T18:09:13.531Z,17.60
2019-05-01T18:11:47.241Z,17.50
2019-05-01T18:14:14.115Z,17.40
2019-05-01T18:16:43.960Z,17.30
2019-05-01T18:19:13.462Z,17.20
2019-05-01T18:21:46.619Z,17.10
2019-05-01T18:24:40.154Z,17.10
2019-05-01T18:27:34.348Z,17.00
2019-05-01T18:30:07.091Z,16.80
2019-05-01T18:32:41.540Z,16.60
2019-05-01T18:35:14.148Z,16.40
2019-05-01T18:38:06.276Z,16.30
2019-05-01T18:40:47.424Z,16.20
2019-05-01T18:43:17.088Z,16.30
2019-05-01T18:45:48.667Z,16.20
2019-05-01T18:48:18.398Z,16.20
2019-05-01T18:50:49.594Z,16.10
2019-05-01T18:53:18.857Z,15.80
2019-05-01T18:55:48.357Z,15.70
2019-05-01T18:58:18.639Z,15.40
2019-05-01T19:00:48.046Z,15.20
2019-05-01T19:03:17.847Z,15.10
2019-05-01T19:05:48.273Z,14.90
2019-05-01T19:08:17.865Z,14.80
2019-05-01T19:10:47.525Z,14.80
2019-05-01T19:13:17.240Z,14.80
2019-05-01T19:15:46.887Z,14.80
2019-05-01T19:18:16.659Z,14.80
2019-05-01T19:20:58.358Z,14.80
2019-05-01T19:23:17.073Z,14.80
2019-05-01T19:25:46.452Z,15.00
2019-05-01T19:28:17.016Z,15.10
2019-05-01T19:30:46.761Z,14.90
2019-05-01T19:33:16.198Z,14.60
2019-05-01T19:35:45.937Z,14.40
2019-05-01T19:38:16.087Z,14.20
2019-05-01T19:40:45.511Z,14.00
2019-05-01T19:43:15.194Z,14.00
2019-05-01T19:45:44.844Z,14.00
2019-05-01T19:48:14.538Z,14.00
2019-05-01T19:50:47.929Z,13.90
2019-05-01T19:53:16.002Z,13.80
2019-05-01T19:55:46.732Z,13.70
2019-05-01T19:58:16.198Z,13.60
2019-05-01T20:01:13.758Z,13.50
2019-05-01T20:03:43.179Z,13.40
2019-05-01T20:06:12.897Z,13.30
2019-05-01T20:08:42.343Z,13.30
2019-05-01T20:11:12.034Z,13.20
2019-05-01T20:13:41.791Z,13.10
2019-05-01T20:16:11.521Z,13.00
2019-05-01T20:18:41.219Z,13.00
2019-05-01T20:21:10.602Z,13.00
2019-05-01T20:23:40.305Z,13.00
2019-05-01T20:26:10.253Z,12.90
2019-05-01T20:28:40.089Z,12.80
2019-05-01T20:31:09.538Z,12.70
2019-05-01T20:33:43.927Z,12.60
2019-05-01T20:36:10.289Z,12.60
2019-05-01T20:38:40.472Z,12.50
2019-05-01T20:41:10.463Z,12.40
2019-05-01T20:43:43.431Z,12.50
2019-05-01T20:46:12.617Z,12.60
2019-05-01T20:48:42.037Z,12.60
2019-05-01T20:51:11.751Z,12.60
2019-05-01T20:53:41.170Z,12.70
2019-05-01T20:56:27.557Z,12.70
2019-05-01T20:58:57.825Z,12.60
2019-05-01T21:01:29.595Z,12.80
2019-05-01T21:04:21.155Z,12.60
2019-05-01T21:07:10.232Z,12.60
2019-05-01T21:09:47.609Z,12.50
2019-05-01T21:12:13.164Z,12.40
2019-05-01T21:14:45.291Z,12.30
2019-05-01T21:17:15.037Z,12.30
2019-05-01T21:19:44.507Z,12.10
2019-05-01T21:22:14.359Z,12.20
2019-05-01T21:24:44.354Z,12.10
2019-05-01T21:27:13.928Z,12.00
2019-05-01T21:29:44.482Z,11.90
2019-05-01T21:32:18.396Z,11.90
2019-05-01T21:34:45.402Z,11.90
2019-05-01T21:37:15.130Z,11.90
2019-05-01T21:39:44.523Z,11.80
2019-05-01T21:42:16.045Z,11.80
2019-05-01T21:44:45.783Z,11.70
2019-05-01T21:47:15.174Z,11.70
2019-05-01T21:49:44.682Z,11.60
2019-05-01T21:52:18.007Z,11.60
2019-05-01T21:54:45.120Z,11.50
2019-05-01T21:57:17.381Z,11.50
2019-05-01T21:59:48.140Z,11.50
2019-05-01T22:02:16.920Z,11.50
2019-05-01T22:04:46.694Z,11.60
2019-05-01T22:07:16.324Z,11.50
2019-05-01T22:09:50.337Z,11.60
2019-05-01T22:12:17.091Z,11.70
2019-05-01T22:14:53.849Z,11.60
2019-05-01T22:17:45.544Z,11.60
2019-05-01T22:20:17.069Z,11.50
2019-05-01T22:22:53.774Z,11.30
2019-05-01T22:25:30.137Z,11.20
2019-05-01T22:28:09.098Z,11.20
2019-05-01T22:30:47.462Z,11.20
2019-05-01T22:33:17.167Z,11.20
2019-05-01T22:35:48.830Z,11.20
2019-05-01T22:38:18.323Z,11.20
2019-05-01T22:41:11.234Z,11.20
2019-05-01T22:43:40.870Z,11.30
2019-05-01T22:46:24.747Z,11.30
2019-05-01T22:48:54.117Z,11.30
2019-05-01T22:51:24.227Z,11.30
2019-05-01T22:53:56.363Z,11.30
2019-05-01T22:56:26.198Z,11.20
2019-05-01T22:58:55.897Z,11.30
2019-05-01T23:01:26.326Z,11.20
2019-05-01T23:03:58.064Z,11.10
2019-05-01T23:06:27.714Z,11.00
2019-05-01T23:08:57.103Z,11.00
2019-05-01T23:11:28.583Z,10.90
2019-05-01T23:13:57.955Z,10.80
2019-05-01T23:16:31.384Z,10.70
2019-05-01T23:19:00.781Z,10.70
2019-05-01T23:21:30.477Z,10.50
2019-05-01T23:24:01.880Z,10.40
2019-05-01T23:26:30.865Z,10.40
2019-05-01T23:29:00.236Z,10.30
2019-05-01T23:31:29.841Z,10.30
2019-05-01T23:33:59.204Z,10.20
2019-05-01T23:36:28.595Z,10.10
2019-05-01T23:38:58.243Z,10.10
2019-05-01T23:41:44.619Z,10.10
2019-05-01T23:44:03.584Z,10.00
2019-05-01T23:46:30.156Z,10.00
2019-05-01T23:48:59.870Z,10.00
2019-05-01T23:51:29.896Z,10.10
2019-05-01T23:53:59.333Z,10.00
2019-05-01T23:56:31.101Z,10.10
2019-05-01T23:59:00.219Z,10.10
